Airfield :
LOGIN :

Register | Disclaimer

   EN    FR    IT 

 










Legend :    VFR   Marginal VFR   IFR   Intensive IFR   Very Intensive IFR
Visi :
Ceiling :
>= 8 km
>= 3000ft
5 to 8 km
1000 to 3000 ft
1500m to 5 km
500 to 1000 ft
800 to 1500m
200 to 500 ft
< 800m
< 200 ft
Symbols :   Thunderstorms  Fog  Heavy snow  Heavy precipitations  Wind > 20 kt
SIGMETs :     Misc.  Thunderstorms  Icing  Turbulence  Mountain Waves  Volcanic Ashes






- Airport Elevation : 158 ft
- IATA code : QAR


EHDL - Deelen Airbase

CURRENT METAR :
  • 181725Z AUTO 25007KT 150V290 9999 FEW009 SCT010 BKN015CB 05/04 Q1018 GRN

EXPIRED METARs :
  • 181655Z AUTO 24011KT 200V300 9999 -RA FEW010 FEW015CB SCT020 BKN030 05/04 Q1018 RERA REDZ WHT
  • 181625Z AUTO 23012KT 170V280 9999 FEW009 SCT012 BKN014 FEW015CB 05/04 Q1018 GRN
  • 181555Z AUTO 22012KT 160V280 9999 -RA FEW013 FEW015CB BKN051 BKN057 05/04 Q1018 BLU
  • 181525Z AUTO 23012KT 180V270 9999 DZ FEW013 SCT021 BKN036 05/04 Q1018 WHT
  • 181455Z AUTO 24010KT 190V300 9999 SCT011 BKN014 BKN017 05/05 Q1018 GRN

Expired Forecast.



MET'MAP, your aeronautical weather chart ! - Copyright ORBIFLY December 2007 - Disclaimer

ORBIFLY MET'MAP TEAM :

Programming & Development : Alexandra Zaïnal
Concept & original design : Baudouin d'Aumeries
Assistance for programming : Marc-Olivier Méhu
Technical & hardware support : Manuel Goepfert

Contact : metmap@orbifly.com




SOURCES & CREDITS :

   NOAA